Time;durP1;ratioP1;P1;durP2;ratioP2;P2;SDS_P1;SDS_P2;PMS_P1;PMS_P2;Temp;Humidity;BMP_temperature;BMP_pressure;BME280_temperature;BME280_humidity;BME280_pressure;Samples;Min_cycle;Max_cycle;Signal;HPM_P1;HPM_P2
2022/05/15 00:02:34;;;;;;;0.75;0.60;;;;;;;;;;5048159;28;20047;-74
2022/05/15 00:04:59;;;;;;;0.98;0.65;;;;;;;;;;5049571;28;20135;-76
2022/05/15 00:07:25;;;;;;;0.50;0.50;;;;;;;;;;5047153;28;20021;-76
2022/05/15 00:09:51;;;;;;;0.43;0.43;;;;;;;;;;5043395;28;20050;-76
2022/05/15 00:12:20;;;;;;;0.70;0.70;;;;;;;;;;5047567;28;20033;-76
2022/05/15 00:14:46;;;;;;;4.68;0.60;;;;;;;;;;5041381;28;20593;-76
2022/05/15 00:17:12;;;;;;;2.72;0.75;;;;;;;;;;5046477;28;20028;-74
2022/05/15 00:19:38;;;;;;;0.40;0.28;;;;;;;;;;5041855;28;20029;-75
2022/05/15 00:22:04;;;;;;;0.68;0.65;;;;;;;;;;5046617;28;20504;-75
2022/05/15 00:24:30;;;;;;;0.88;0.82;;;;;;;;;;5045373;28;20410;-76
2022/05/15 00:26:56;;;;;;;1.20;0.65;;;;;;;;;;5049130;28;20029;-74
2022/05/15 00:29:22;;;;;;;0.38;0.38;;;;;;;;;;5049919;28;20061;-74
2022/05/15 00:31:48;;;;;;;0.95;0.28;;;;;;;;;;5046179;28;20052;-76
2022/05/15 00:34:14;;;;;;;0.40;0.40;;;;;;;;;;5047390;28;20029;-76
2022/05/15 00:36:40;;;;;;;0.52;0.43;;;;;;;;;;5029763;28;20033;-76
2022/05/15 00:39:07;;;;;;;0.60;0.38;;;;;;;;;;5040079;28;20211;-76
2022/05/15 00:41:33;;;;;;;1.15;1.05;;;;;;;;;;5046057;28;20036;-76
2022/05/15 00:43:59;;;;;;;0.82;0.80;;;;;;;;;;5039051;28;20030;-76
2022/05/15 00:46:28;;;;;;;0.70;0.35;;;;;;;;;;5037492;28;20021;-76
2022/05/15 00:48:54;;;;;;;0.85;0.85;;;;;;;;;;5036813;28;20074;-75
2022/05/15 00:51:20;;;;;;;2.17;0.77;;;;;;;;;;5033783;28;20037;-75
2022/05/15 00:53:48;;;;;;;0.73;0.63;;;;;;;;;;5036565;28;20032;-75
2022/05/15 00:56:14;;;;;;;0.35;0.35;;;;;;;;;;5046091;28;20119;-75
2022/05/15 00:58:41;;;;;;;1.08;1.00;;;;;;;;;;5049269;28;20445;-76
2022/05/15 01:01:07;;;;;;;0.70;0.65;;;;;;;;;;5049096;28;20411;-75
2022/05/15 01:03:32;;;;;;;0.30;0.30;;;;;;;;;;5038966;28;20028;-75
2022/05/15 01:05:59;;;;;;;1.67;1.42;;;;;;;;;;5043394;28;20042;-75
2022/05/15 01:08:27;;;;;;;1.25;0.55;;;;;;;;;;5039713;28;20024;-75
2022/05/15 01:10:55;;;;;;;1.80;1.13;;;;;;;;;;5034626;28;20064;-75
2022/05/15 01:13:21;;;;;;;0.60;0.50;;;;;;;;;;5048403;28;20111;-75
2022/05/15 01:15:48;;;;;;;0.88;0.82;;;;;;;;;;5032882;28;20021;-75
2022/05/15 01:18:14;;;;;;;1.40;1.20;;;;;;;;;;5039027;28;20421;-75
2022/05/15 01:20:40;;;;;;;0.85;0.73;;;;;;;;;;5042130;28;20033;-75
2022/05/15 01:23:07;;;;;;;0.52;0.50;;;;;;;;;;5037373;28;20047;-75
2022/05/15 01:25:34;;;;;;;2.10;0.80;;;;;;;;;;5036930;28;20013;-75
2022/05/15 01:28:02;;;;;;;0.88;0.82;;;;;;;;;;5048622;28;20036;-75
2022/05/15 01:30:28;;;;;;;0.63;0.63;;;;;;;;;;5048815;28;20106;-75
2022/05/15 01:32:54;;;;;;;4.90;1.35;;;;;;;;;;5048707;28;20029;-75
2022/05/15 01:35:20;;;;;;;2.08;1.25;;;;;;;;;;5041542;28;20029;-75
2022/05/15 01:37:46;;;;;;;1.08;0.63;;;;;;;;;;5045290;28;20458;-75
2022/05/15 01:40:13;;;;;;;0.88;0.70;;;;;;;;;;5043600;28;20025;-76
2022/05/15 01:42:39;;;;;;;1.27;1.13;;;;;;;;;;5042164;28;20480;-75
2022/05/15 01:45:06;;;;;;;0.52;0.52;;;;;;;;;;5050244;28;20098;-75
2022/05/15 01:47:32;;;;;;;4.65;1.80;;;;;;;;;;5052930;28;20024;-75
2022/05/15 01:49:58;;;;;;;1.65;1.05;;;;;;;;;;5052456;28;20036;-75
2022/05/15 01:52:24;;;;;;;4.95;2.55;;;;;;;;;;5039693;28;20064;-75
2022/05/15 01:54:50;;;;;;;2.25;1.23;;;;;;;;;;5051887;28;20060;-75
2022/05/15 01:57:16;;;;;;;0.75;0.30;;;;;;;;;;5050378;28;20083;-76
2022/05/15 01:59:42;;;;;;;1.55;1.02;;;;;;;;;;5045911;28;20029;-76
2022/05/15 02:02:08;;;;;;;1.33;1.23;;;;;;;;;;5050288;28;20036;-76
2022/05/15 02:04:34;;;;;;;1.17;1.08;;;;;;;;;;5043724;28;20154;-76
2022/05/15 02:07:00;;;;;;;0.70;0.50;;;;;;;;;;5051549;28;20029;-76
2022/05/15 02:09:26;;;;;;;0.28;0.28;;;;;;;;;;5032684;28;20417;-76
2022/05/15 02:11:52;;;;;;;1.42;1.20;;;;;;;;;;5043592;28;20395;-76
2022/05/15 02:14:18;;;;;;;0.63;0.47;;;;;;;;;;5052065;28;20078;-76
2022/05/15 02:16:44;;;;;;;0.40;0.40;;;;;;;;;;5051802;28;20025;-75
2022/05/15 02:19:11;;;;;;;0.35;0.35;;;;;;;;;;5047722;28;20079;-76
2022/05/15 02:21:37;;;;;;;0.65;0.65;;;;;;;;;;5039108;28;20483;-76
2022/05/15 02:24:03;;;;;;;1.20;1.10;;;;;;;;;;5045563;28;20033;-76
2022/05/15 02:26:29;;;;;;;0.80;0.68;;;;;;;;;;5034206;28;20584;-76
2022/05/15 02:28:55;;;;;;;0.15;0.15;;;;;;;;;;5047932;28;20087;-76
2022/05/15 02:31:21;;;;;;;0.45;0.45;;;;;;;;;;5046651;28;20396;-76
2022/05/15 02:33:47;;;;;;;0.65;0.32;;;;;;;;;;5051738;28;20040;-76
2022/05/15 02:36:13;;;;;;;0.77;0.77;;;;;;;;;;5051688;28;20056;-76
2022/05/15 02:38:39;;;;;;;0.68;0.68;;;;;;;;;;5050023;28;20108;-76
2022/05/15 02:41:05;;;;;;;0.60;0.60;;;;;;;;;;5065111;28;20101;-76
2022/05/15 02:43:31;;;;;;;0.98;0.90;;;;;;;;;;5051458;28;20475;-76
2022/05/15 02:45:57;;;;;;;0.75;0.55;;;;;;;;;;5050247;28;20116;-76
2022/05/15 02:51:08;;;;;;;0.82;0.52;;;;;;;;;;5050777;28;20658;-76
2022/05/15 02:53:36;;;;;;;1.65;0.52;;;;;;;;;;5049528;28;20067;-76
2022/05/15 02:56:03;;;;;;;0.73;0.60;;;;;;;;;;5049652;28;20614;-76
2022/05/15 02:58:29;;;;;;;0.63;0.60;;;;;;;;;;5050925;28;20021;-76
2022/05/15 03:00:56;;;;;;;0.45;0.45;;;;;;;;;;5044293;28;20361;-76
2022/05/15 03:03:23;;;;;;;4.57;0.82;;;;;;;;;;5036453;28;20075;-76
2022/05/15 03:05:49;;;;;;;0.20;0.20;;;;;;;;;;5035076;28;20114;-76
2022/05/15 03:08:15;;;;;;;1.27;0.70;;;;;;;;;;5034974;28;20464;-77
2022/05/15 03:10:41;;;;;;;0.50;0.50;;;;;;;;;;5048026;28;20043;-76
2022/05/15 03:13:07;;;;;;;0.60;0.60;;;;;;;;;;5033937;28;20396;-76
2022/05/15 03:15:33;;;;;;;0.55;0.40;;;;;;;;;;5041010;28;20075;-76
2022/05/15 03:17:59;;;;;;;0.20;0.20;;;;;;;;;;5051079;28;20450;-76
2022/05/15 03:20:27;;;;;;;0.30;0.30;;;;;;;;;;5047262;28;20064;-76
2022/05/15 03:22:53;;;;;;;2.10;1.13;;;;;;;;;;5034310;28;20021;-75
2022/05/15 03:25:19;;;;;;;0.17;0.17;;;;;;;;;;5034405;28;20029;-76
2022/05/15 03:27:45;;;;;;;0.90;0.77;;;;;;;;;;5038491;28;20108;-76
2022/05/15 03:30:11;;;;;;;1.73;1.17;;;;;;;;;;5047184;28;20452;-76
2022/05/15 03:32:37;;;;;;;0.20;0.20;;;;;;;;;;5031887;28;20029;-76
2022/05/15 03:35:04;;;;;;;0.95;0.95;;;;;;;;;;5030676;28;20112;-76
2022/05/15 03:37:30;;;;;;;0.65;0.65;;;;;;;;;;5035726;28;20033;-76
2022/05/15 03:39:56;;;;;;;1.27;0.60;;;;;;;;;;5045223;28;20020;-76
2022/05/15 03:42:24;;;;;;;0.20;0.20;;;;;;;;;;5045831;28;20025;-76
2022/05/15 03:44:50;;;;;;;1.90;1.33;;;;;;;;;;5033402;28;20376;-77
2022/05/15 03:47:16;;;;;;;0.40;0.40;;;;;;;;;;5042618;28;20025;-76
2022/05/15 03:49:42;;;;;;;0.28;0.28;;;;;;;;;;5050334;28;20118;-76
2022/05/15 03:52:08;;;;;;;2.05;0.63;;;;;;;;;;5045776;28;20079;-76
2022/05/15 03:54:34;;;;;;;0.45;0.43;;;;;;;;;;5035511;28;20226;-76
2022/05/15 03:57:00;;;;;;;0.40;0.40;;;;;;;;;;5039858;28;20029;-76
2022/05/15 03:59:29;;;;;;;0.40;0.40;;;;;;;;;;5033006;28;20559;-76
2022/05/15 04:01:55;;;;;;;0.30;0.30;;;;;;;;;;5043237;28;20032;-76
2022/05/15 04:04:21;;;;;;;1.45;0.65;;;;;;;;;;5035206;28;20046;-76
2022/05/15 04:06:46;;;;;;;0.82;0.60;;;;;;;;;;5041163;28;20029;-76
2022/05/15 04:09:13;;;;;;;1.17;0.95;;;;;;;;;;5049450;28;20032;-76
2022/05/15 04:11:39;;;;;;;0.73;0.73;;;;;;;;;;5042427;28;20040;-76
2022/05/15 04:14:05;;;;;;;4.75;1.25;;;;;;;;;;5045069;28;20025;-76
2022/05/15 04:16:31;;;;;;;1.85;0.28;;;;;;;;;;5037980;28;20021;-76
2022/05/15 04:18:57;;;;;;;0.35;0.28;;;;;;;;;;5036259;28;20021;-76
2022/05/15 04:21:23;;;;;;;0.73;0.73;;;;;;;;;;5050069;28;20067;-76
2022/05/15 04:23:52;;;;;;;0.10;0.10;;;;;;;;;;5049147;28;20032;-76
2022/05/15 04:26:18;;;;;;;0.40;0.40;;;;;;;;;;5049400;28;20112;-76
2022/05/15 04:28:44;;;;;;;0.38;0.38;;;;;;;;;;5033265;28;20512;-76
2022/05/15 04:31:10;;;;;;;0.70;0.70;;;;;;;;;;5049900;28;20036;-76
2022/05/15 04:33:36;;;;;;;0.40;0.40;;;;;;;;;;5042031;28;20376;-76
2022/05/15 04:36:02;;;;;;;1.33;0.63;;;;;;;;;;5037118;28;20149;-76
2022/05/15 04:38:28;;;;;;;1.85;0.50;;;;;;;;;;5034799;28;20030;-76
2022/05/15 04:40:54;;;;;;;0.32;0.32;;;;;;;;;;5048215;28;20028;-77
2022/05/15 04:43:20;;;;;;;0.50;0.50;;;;;;;;;;5048657;28;20013;-77
2022/05/15 04:45:46;;;;;;;0.70;0.50;;;;;;;;;;5038622;28;20021;-76
2022/05/15 04:48:12;;;;;;;0.15;0.15;;;;;;;;;;5047337;28;20032;-76
2022/05/15 04:50:38;;;;;;;1.85;1.48;;;;;;;;;;5048987;28;20029;-76
2022/05/15 04:53:05;;;;;;;0.95;0.65;;;;;;;;;;5045850;28;20088;-76
2022/05/15 04:55:30;;;;;;;2.67;0.52;;;;;;;;;;5048249;28;20435;-76
2022/05/15 04:57:56;;;;;;;1.17;0.68;;;;;;;;;;5049452;28;20052;-76
2022/05/15 05:00:22;;;;;;;0.30;0.30;;;;;;;;;;5048864;28;20033;-76
2022/05/15 05:02:48;;;;;;;4.07;0.98;;;;;;;;;;5048608;28;20025;-76
2022/05/15 05:05:14;;;;;;;5.35;0.57;;;;;;;;;;5047318;28;20045;-76
2022/05/15 05:07:40;;;;;;;0.28;0.20;;;;;;;;;;5036224;28;20017;-76
2022/05/15 05:10:07;;;;;;;0.40;0.40;;;;;;;;;;5038671;28;20025;-76
2022/05/15 05:12:33;;;;;;;0.85;0.73;;;;;;;;;;5047467;28;20041;-76
2022/05/15 05:14:58;;;;;;;4.38;0.98;;;;;;;;;;5040094;28;20024;-76
2022/05/15 05:17:27;;;;;;;0.50;0.43;;;;;;;;;;5035729;28;20431;-75
2022/05/15 05:19:53;;;;;;;0.93;0.82;;;;;;;;;;5051411;28;20472;-75
2022/05/15 05:22:19;;;;;;;0.10;0.10;;;;;;;;;;5048344;28;20026;-75
2022/05/15 05:24:45;;;;;;;0.10;0.10;;;;;;;;;;5050128;28;20049;-76
2022/05/15 05:27:11;;;;;;;0.60;0.45;;;;;;;;;;5047633;28;20037;-76
2022/05/15 05:29:37;;;;;;;0.20;0.20;;;;;;;;;;5046721;28;20025;-75
2022/05/15 05:32:04;;;;;;;0.50;0.50;;;;;;;;;;5047873;28;20029;-76
2022/05/15 05:34:29;;;;;;;3.22;0.45;;;;;;;;;;5043270;28;20535;-76
2022/05/15 05:36:55;;;;;;;0.20;0.20;;;;;;;;;;5044978;28;20145;-76
2022/05/15 05:39:21;;;;;;;0.20;0.20;;;;;;;;;;5049329;28;20253;-76
2022/05/15 05:41:47;;;;;;;2.85;0.88;;;;;;;;;;5050870;28;20116;-76
2022/05/15 05:44:13;;;;;;;0.28;0.28;;;;;;;;;;5045690;28;20028;-76
2022/05/15 05:46:39;;;;;;;2.88;0.35;;;;;;;;;;5039405;28;20120;-76
2022/05/15 05:49:05;;;;;;;0.15;0.15;;;;;;;;;;5041100;28;20037;-76
2022/05/15 05:51:31;;;;;;;0.10;0.10;;;;;;;;;;5034185;28;20045;-76
2022/05/15 05:53:57;;;;;;;4.28;0.45;;;;;;;;;;5041159;28;20466;-76
2022/05/15 05:56:23;;;;;;;0.30;0.30;;;;;;;;;;5046746;28;20383;-76
2022/05/15 05:58:49;;;;;;;0.60;0.43;;;;;;;;;;5037983;28;20029;-75
2022/05/15 06:01:15;;;;;;;0.85;0.25;;;;;;;;;;5033625;28;20029;-76
2022/05/15 06:06:26;;;;;;;0.13;0.13;;;;;;;;;;5047872;28;20044;-78
2022/05/15 06:08:52;;;;;;;0.35;0.35;;;;;;;;;;5051144;28;20029;-76
2022/05/15 06:11:17;;;;;;;0.40;0.40;;;;;;;;;;5040831;28;20098;-76
2022/05/15 06:13:43;;;;;;;0.13;0.13;;;;;;;;;;5050343;28;20432;-76
2022/05/15 06:16:09;;;;;;;0.22;0.22;;;;;;;;;;5051998;28;20112;-76
2022/05/15 06:18:36;;;;;;;0.50;0.50;;;;;;;;;;5046223;28;20029;-76
2022/05/15 06:21:02;;;;;;;0.43;0.43;;;;;;;;;;5049311;28;20025;-75
2022/05/15 06:23:28;;;;;;;0.10;0.10;;;;;;;;;;5048085;28;20017;-74
2022/05/15 06:25:53;;;;;;;0.35;0.35;;;;;;;;;;5045474;28;20021;-74
2022/05/15 06:28:19;;;;;;;0.50;0.50;;;;;;;;;;5045909;28;20490;-80
2022/05/15 06:30:45;;;;;;;0.35;0.25;;;;;;;;;;5047219;28;20108;-78
2022/05/15 06:33:11;;;;;;;0.00;0.00;;;;;;;;;;5048298;28;20036;-78
2022/05/15 06:35:38;;;;;;;1.15;0.57;;;;;;;;;;5046643;28;20033;-78
2022/05/15 06:38:04;;;;;;;0.13;0.13;;;;;;;;;;5047928;28;20075;-78
2022/05/15 06:40:30;;;;;;;0.43;0.43;;;;;;;;;;5047250;28;20033;-78
2022/05/15 06:42:57;;;;;;;0.32;0.25;;;;;;;;;;5049699;28;20110;-78
2022/05/15 06:45:23;;;;;;;0.73;0.50;;;;;;;;;;5040866;28;20047;-76
2022/05/15 06:47:49;;;;;;;0.28;0.28;;;;;;;;;;5044740;28;20044;-75
2022/05/15 06:50:15;;;;;;;0.05;0.05;;;;;;;;;;5042442;28;20018;-74
2022/05/15 06:52:41;;;;;;;0.10;0.10;;;;;;;;;;5046093;28;20478;-76
2022/05/15 06:55:09;;;;;;;0.22;0.22;;;;;;;;;;5043209;28;20097;-76
2022/05/15 06:57:35;;;;;;;1.40;0.63;;;;;;;;;;5044375;28;20033;-74
2022/05/15 07:00:04;;;;;;;1.67;0.40;;;;;;;;;;5047857;28;20052;-75
2022/05/15 07:02:30;;;;;;;0.32;0.20;;;;;;;;;;5040404;28;20112;-75
2022/05/15 07:04:57;;;;;;;0.52;0.38;;;;;;;;;;5047423;28;20404;-78
2022/05/15 07:07:23;;;;;;;3.53;0.45;;;;;;;;;;5048351;28;20170;-77
2022/05/15 07:09:49;;;;;;;0.10;0.10;;;;;;;;;;5044966;28;20058;-76
2022/05/15 07:12:15;;;;;;;0.00;0.00;;;;;;;;;;5047172;28;20040;-75
2022/05/15 07:14:41;;;;;;;0.47;0.20;;;;;;;;;;5042406;28;20057;-76
2022/05/15 07:17:07;;;;;;;0.57;0.30;;;;;;;;;;5034185;28;22451;-78
2022/05/15 07:19:33;;;;;;;1.15;0.28;;;;;;;;;;5035997;28;20179;-77
2022/05/15 07:21:59;;;;;;;0.20;0.10;;;;;;;;;;5040431;28;20100;-77
2022/05/15 07:24:25;;;;;;;0.40;0.40;;;;;;;;;;5039696;28;20021;-76
2022/05/15 07:26:52;;;;;;;0.30;0.30;;;;;;;;;;5039181;28;20322;-77
2022/05/15 07:29:18;;;;;;;0.20;0.20;;;;;;;;;;5040320;28;20237;-81
2022/05/15 07:31:44;;;;;;;2.03;0.75;;;;;;;;;;5039415;28;20396;-78
2022/05/15 07:34:10;;;;;;;1.17;0.40;;;;;;;;;;5037412;28;20028;-78
2022/05/15 07:36:38;;;;;;;0.28;0.10;;;;;;;;;;5039341;28;20153;-79
2022/05/15 07:39:04;;;;;;;0.10;0.10;;;;;;;;;;5041128;28;20049;-80
2022/05/15 07:41:30;;;;;;;3.25;1.10;;;;;;;;;;5039523;28;20040;-78
2022/05/15 07:43:56;;;;;;;0.13;0.13;;;;;;;;;;5040889;28;20033;-75
2022/05/15 07:46:22;;;;;;;0.10;0.10;;;;;;;;;;5039733;28;20033;-76
2022/05/15 07:48:48;;;;;;;0.30;0.17;;;;;;;;;;5040149;28;20033;-75
2022/05/15 07:51:14;;;;;;;0.38;0.30;;;;;;;;;;5039471;28;20036;-76
2022/05/15 07:53:41;;;;;;;0.10;0.10;;;;;;;;;;5040020;28;20053;-75
2022/05/15 07:56:12;;;;;;;0.10;0.00;;;;;;;;;;5039802;28;20669;-74
2022/05/15 07:58:38;;;;;;;0.20;0.20;;;;;;;;;;5039599;28;20029;-75
2022/05/15 08:01:05;;;;;;;1.10;0.52;;;;;;;;;;5039796;28;20044;-75
2022/05/15 08:03:37;;;;;;;0.17;0.17;;;;;;;;;;5039071;28;20100;-80
2022/05/15 08:08:49;;;;;;;0.52;0.50;;;;;;;;;;5038817;28;20044;-74
2022/05/15 08:11:14;;;;;;;0.00;0.00;;;;;;;;;;5038637;28;20017;-75
2022/05/15 08:13:41;;;;;;;0.00;0.00;;;;;;;;;;5039625;28;20785;-74
2022/05/15 08:16:08;;;;;;;9.00;1.20;;;;;;;;;;5038176;28;20021;-84
2022/05/15 08:24:03;;;;;;;2.10;0.73;;;;;;;;;;5039236;28;20060;-79
2022/05/15 08:26:29;;;;;;;0.10;0.10;;;;;;;;;;5038820;28;20021;-78
2022/05/15 08:28:55;;;;;;;0.10;0.10;;;;;;;;;;5039092;28;20032;-80
2022/05/15 08:31:24;;;;;;;0.10;0.10;;;;;;;;;;5041009;28;20032;-80
2022/05/15 08:33:53;;;;;;;0.08;0.08;;;;;;;;;;5039098;28;20076;-79
2022/05/15 08:36:19;;;;;;;0.17;0.10;;;;;;;;;;5033810;28;20767;-78
2022/05/15 08:38:45;;;;;;;0.10;0.10;;;;;;;;;;5036916;28;20078;-78
2022/05/15 08:41:16;;;;;;;1.02;0.47;;;;;;;;;;5034728;28;20037;-78
2022/05/15 08:43:46;;;;;;;0.10;0.10;;;;;;;;;;5028261;28;20025;-78
2022/05/15 08:46:20;;;;;;;0.00;0.00;;;;;;;;;;5031508;28;20032;-78
2022/05/15 08:48:46;;;;;;;4.03;0.50;;;;;;;;;;5047567;28;20031;-79
2022/05/15 08:51:13;;;;;;;0.10;0.10;;;;;;;;;;5037782;28;20030;-79
2022/05/15 08:53:41;;;;;;;1.33;0.30;;;;;;;;;;5041150;28;20554;-78
2022/05/15 08:56:09;;;;;;;0.20;0.20;;;;;;;;;;5038750;28;20033;-78
2022/05/15 08:58:52;;;;;;;0.32;0.32;;;;;;;;;;5035476;28;20024;-79
2022/05/15 09:01:22;;;;;;;0.10;0.10;;;;;;;;;;5031346;28;20034;-79
2022/05/15 09:03:48;;;;;;;0.15;0.10;;;;;;;;;;5029844;28;20124;-79
2022/05/15 09:06:14;;;;;;;0.57;0.30;;;;;;;;;;5033854;28;20128;-78
2022/05/15 09:08:42;;;;;;;0.35;0.20;;;;;;;;;;5033644;28;20029;-79
2022/05/15 09:11:09;;;;;;;0.68;0.22;;;;;;;;;;5030943;28;20021;-79
2022/05/15 09:13:38;;;;;;;0.30;0.30;;;;;;;;;;5036349;28;20025;-79
2022/05/15 09:16:04;;;;;;;0.30;0.30;;;;;;;;;;5043116;28;20634;-78
2022/05/15 09:18:33;;;;;;;0.20;0.20;;;;;;;;;;5040284;28;20040;-79
2022/05/15 09:21:03;;;;;;;0.10;0.10;;;;;;;;;;5039754;28;20036;-79
2022/05/15 09:23:29;;;;;;;0.20;0.10;;;;;;;;;;5038444;28;20038;-79
2022/05/15 09:25:59;;;;;;;0.35;0.32;;;;;;;;;;5040671;28;20029;-79
2022/05/15 09:28:26;;;;;;;0.30;0.30;;;;;;;;;;5033677;28;20025;-79
2022/05/15 09:30:53;;;;;;;0.00;0.00;;;;;;;;;;5034789;28;20461;-78
2022/05/15 09:33:29;;;;;;;0.00;0.00;;;;;;;;;;5039238;28;20076;-80
2022/05/15 09:36:13;;;;;;;0.10;0.10;;;;;;;;;;5034706;28;20031;-79
2022/05/15 09:38:39;;;;;;;0.10;0.10;;;;;;;;;;5034662;28;20044;-79
2022/05/15 09:43:56;;;;;;;0.20;0.20;;;;;;;;;;5036377;28;20146;-79
2022/05/15 09:46:24;;;;;;;0.05;0.05;;;;;;;;;;5034078;28;20437;-79
2022/05/15 09:48:55;;;;;;;0.10;0.10;;;;;;;;;;5040503;28;20036;-78
2022/05/15 09:51:35;;;;;;;0.10;0.10;;;;;;;;;;5038723;28;20396;-78
2022/05/15 09:54:01;;;;;;;0.10;0.10;;;;;;;;;;5027030;28;20026;-79
2022/05/15 09:56:32;;;;;;;0.20;0.20;;;;;;;;;;5037395;28;20522;-79
2022/05/15 09:59:09;;;;;;;0.20;0.20;;;;;;;;;;5035637;28;20120;-79
2022/05/15 10:01:35;;;;;;;0.10;0.10;;;;;;;;;;5043174;28;20028;-78
2022/05/15 10:04:02;;;;;;;0.17;0.17;;;;;;;;;;5040390;28;20035;-79
2022/05/15 10:06:30;;;;;;;0.32;0.32;;;;;;;;;;5041201;28;20107;-79
2022/05/15 10:09:10;;;;;;;0.10;0.10;;;;;;;;;;5034146;28;20023;-78
2022/05/15 10:11:37;;;;;;;0.10;0.10;;;;;;;;;;5043074;28;20543;-79
2022/05/15 10:14:04;;;;;;;0.28;0.10;;;;;;;;;;5034002;28;20024;-79
2022/05/15 10:16:32;;;;;;;0.38;0.38;;;;;;;;;;5034652;28;20049;-78
2022/05/15 10:19:10;;;;;;;0.03;0.00;;;;;;;;;;5036037;28;20129;-76
2022/05/15 10:21:40;;;;;;;2.28;0.22;;;;;;;;;;5039069;28;20024;-81
2022/05/15 10:24:08;;;;;;;0.10;0.10;;;;;;;;;;5040125;28;20063;-76
2022/05/15 10:26:52;;;;;;;0.30;0.30;;;;;;;;;;5036732;28;20157;-76
2022/05/15 10:29:38;;;;;;;0.13;0.10;;;;;;;;;;5035375;28;20506;-76
2022/05/15 10:32:07;;;;;;;0.10;0.10;;;;;;;;;;5041978;28;20108;-76
2022/05/15 10:34:34;;;;;;;0.52;0.10;;;;;;;;;;5038855;28;20491;-76
2022/05/15 10:37:03;;;;;;;0.10;0.10;;;;;;;;;;5040739;28;20024;-76
2022/05/15 10:39:34;;;;;;;0.30;0.30;;;;;;;;;;5035384;28;20028;-75
2022/05/15 10:42:19;;;;;;;0.08;0.08;;;;;;;;;;5039604;28;20026;-76
2022/05/15 10:45:00;;;;;;;0.40;0.32;;;;;;;;;;5039550;28;20318;-75
2022/05/15 10:47:35;;;;;;;0.63;0.20;;;;;;;;;;5041882;28;20666;-75
2022/05/15 10:50:09;;;;;;;0.17;0.17;;;;;;;;;;5029785;28;20060;-74
2022/05/15 10:52:45;;;;;;;0.40;0.28;;;;;;;;;;5040503;28;20063;-75
2022/05/15 10:58:26;;;;;;;0.10;0.10;;;;;;;;;;5033711;28;20059;-74
2022/05/15 11:01:05;;;;;;;0.30;0.30;;;;;;;;;;5043554;28;20615;-75
2022/05/15 11:03:50;;;;;;;0.10;0.10;;;;;;;;;;5034683;28;20458;-76
2022/05/15 11:06:28;;;;;;;1.75;0.43;;;;;;;;;;5038019;28;20061;-74
2022/05/15 11:09:00;;;;;;;2.08;0.57;;;;;;;;;;5039765;28;20391;-76
2022/05/15 11:11:29;;;;;;;1.38;0.47;;;;;;;;;;5039753;28;20017;-76
2022/05/15 11:13:57;;;;;;;0.25;0.25;;;;;;;;;;5043670;28;20033;-76
2022/05/15 11:16:26;;;;;;;0.25;0.25;;;;;;;;;;5041844;28;20163;-76
2022/05/15 11:19:11;;;;;;;0.20;0.20;;;;;;;;;;5042387;28;20417;-75
2022/05/15 11:21:52;;;;;;;0.63;0.60;;;;;;;;;;5037165;28;20119;-76
2022/05/15 11:24:31;;;;;;;3.20;0.28;;;;;;;;;;5038016;28;20160;-76
2022/05/15 11:26:59;;;;;;;0.13;0.13;;;;;;;;;;5046952;28;20116;-76
2022/05/15 11:29:25;;;;;;;0.40;0.40;;;;;;;;;;5035490;28;20047;-76
2022/05/15 11:31:56;;;;;;;0.57;0.35;;;;;;;;;;5035143;28;20037;-76
2022/05/15 11:34:41;;;;;;;0.30;0.30;;;;;;;;;;5035288;28;20024;-75
2022/05/15 11:37:27;;;;;;;0.85;0.43;;;;;;;;;;5042392;28;20163;-75
2022/05/15 11:39:59;;;;;;;0.00;0.00;;;;;;;;;;5040124;28;20032;-77
2022/05/15 11:42:28;;;;;;;0.50;0.50;;;;;;;;;;5036975;28;20029;-74
2022/05/15 11:44:54;;;;;;;0.45;0.45;;;;;;;;;;5033158;28;20074;-76
2022/05/15 11:47:35;;;;;;;0.80;0.65;;;;;;;;;;5036266;28;20108;-76
2022/05/15 11:50:03;;;;;;;;;;;;;;;;;;5039445;28;20079;-73
2022/05/15 11:52:35;;;;;;;0.30;0.30;;;;;;;;;;5038916;28;19975;-76
2022/05/15 11:55:01;;;;;;;0.45;0.20;;;;;;;;;;5038559;28;20021;-76
2022/05/15 11:57:35;;;;;;;1.02;0.65;;;;;;;;;;5038070;28;20056;-76
2022/05/15 12:00:03;;;;;;;1.02;0.45;;;;;;;;;;5035776;28;20025;-74
2022/05/15 12:02:33;;;;;;;0.30;0.30;;;;;;;;;;5039098;28;20029;-74
2022/05/15 12:04:59;;;;;;;4.15;0.30;;;;;;;;;;5037710;28;20049;-75
2022/05/15 12:07:30;;;;;;;1.92;0.45;;;;;;;;;;5042366;28;20021;-76
2022/05/15 12:09:56;;;;;;;0.43;0.40;;;;;;;;;;5040481;28;20468;-75
2022/05/15 12:12:31;;;;;;;0.13;0.13;;;;;;;;;;5042058;28;20065;-75
2022/05/15 12:15:19;;;;;;;1.90;0.22;;;;;;;;;;5036744;28;20383;-75
2022/05/15 12:18:07;;;;;;;0.55;0.38;;;;;;;;;;5038144;28;20384;-75
2022/05/15 12:20:38;;;;;;;1.02;0.30;;;;;;;;;;5040293;28;20033;-75
2022/05/15 12:23:10;;;;;;;0.30;0.30;;;;;;;;;;5034834;28;20082;-76
2022/05/15 12:25:42;;;;;;;0.57;0.52;;;;;;;;;;5035357;28;20210;-76
2022/05/15 12:31:15;;;;;;;0.20;0.20;;;;;;;;;;5036307;28;20430;-79
2022/05/15 12:33:41;;;;;;;0.17;0.17;;;;;;;;;;5041539;28;20664;-78
2022/05/15 12:36:15;;;;;;;0.20;0.20;;;;;;;;;;5033858;28;20690;-79
2022/05/15 12:38:50;;;;;;;0.20;0.20;;;;;;;;;;5038495;28;20033;-78
2022/05/15 12:41:28;;;;;;;0.40;0.40;;;;;;;;;;5037903;28;20079;-75
2022/05/15 12:43:54;;;;;;;0.20;0.20;;;;;;;;;;5039763;28;20082;-75
2022/05/15 12:46:26;;;;;;;6.55;0.60;;;;;;;;;;5038342;28;20021;-75
2022/05/15 12:48:52;;;;;;;2.92;0.43;;;;;;;;;;5035831;28;20028;-75
2022/05/15 12:51:25;;;;;;;0.40;0.40;;;;;;;;;;5034871;28;20025;-74
2022/05/15 12:53:51;;;;;;;0.20;0.20;;;;;;;;;;5038377;28;20041;-75
2022/05/15 12:56:18;;;;;;;3.30;0.30;;;;;;;;;;5040956;28;20025;-74
2022/05/15 12:58:49;;;;;;;0.30;0.30;;;;;;;;;;5039459;28;20029;-75
2022/05/15 13:01:15;;;;;;;1.50;0.60;;;;;;;;;;5037925;28;20052;-74
2022/05/15 13:03:42;;;;;;;0.80;0.80;;;;;;;;;;5039860;28;20045;-73
2022/05/15 13:06:08;;;;;;;2.38;0.75;;;;;;;;;;5036306;28;20045;-73
2022/05/15 13:08:51;;;;;;;0.73;0.73;;;;;;;;;;5036553;28;20143;-74
2022/05/15 13:11:21;;;;;;;0.50;0.50;;;;;;;;;;5053765;28;20036;-74
2022/05/15 13:13:48;;;;;;;2.58;0.77;;;;;;;;;;5038960;28;20029;-73
2022/05/15 13:16:17;;;;;;;8.68;6.07;;;;;;;;;;5039461;28;20044;-75
2022/05/15 13:18:44;;;;;;;6.22;5.35;;;;;;;;;;5034178;28;20025;-76
2022/05/15 13:21:10;;;;;;;1.58;1.30;;;;;;;;;;5028851;28;20086;-75
2022/05/15 13:23:37;;;;;;;4.65;3.67;;;;;;;;;;5033077;28;20399;-74
2022/05/15 13:26:04;;;;;;;5.13;4.13;;;;;;;;;;5039645;28;20056;-76
2022/05/15 13:28:31;;;;;;;3.38;1.88;;;;;;;;;;5040941;28;20535;-74
2022/05/15 13:30:58;;;;;;;17.85;11.23;;;;;;;;;;5037704;28;20047;-75
2022/05/15 13:33:26;;;;;;;3.05;2.53;;;;;;;;;;5035995;28;20391;-74
2022/05/15 13:35:53;;;;;;;8.10;6.03;;;;;;;;;;5035581;28;20393;-75
2022/05/15 13:38:23;;;;;;;23.80;14.63;;;;;;;;;;5043766;28;20496;-75
2022/05/15 13:43:39;;;;;;;2.00;1.65;;;;;;;;;;5043953;28;20044;-75
2022/05/15 13:46:08;;;;;;;7.80;5.45;;;;;;;;;;5042016;28;20025;-75
2022/05/15 13:48:52;;;;;;;1.90;1.15;;;;;;;;;;5044065;28;20029;-77
2022/05/15 13:51:37;;;;;;;1.30;1.17;;;;;;;;;;5033258;28;20036;-78
2022/05/15 13:54:11;;;;;;;1.13;0.98;;;;;;;;;;5036738;28;20040;-78
2022/05/15 13:56:36;;;;;;;2.85;1.60;;;;;;;;;;5040087;28;20704;-87
2022/05/15 13:59:03;;;;;;;1.30;1.15;;;;;;;;;;5043763;28;20043;-86
2022/05/15 14:01:30;;;;;;;0.50;0.50;;;;;;;;;;5035855;28;20117;-87
2022/05/15 14:03:57;;;;;;;0.85;0.60;;;;;;;;;;5039489;28;20019;-84
2022/05/15 14:06:23;;;;;;;1.00;0.35;;;;;;;;;;5041353;28;20078;-82
2022/05/15 14:09:00;;;;;;;0.25;0.25;;;;;;;;;;5040291;28;20129;-84
2022/05/15 14:11:27;;;;;;;1.42;0.50;;;;;;;;;;5039609;28;20029;-76
2022/05/15 14:13:54;;;;;;;0.40;0.40;;;;;;;;;;5041820;28;20063;-76
2022/05/15 14:16:22;;;;;;;0.75;0.75;;;;;;;;;;5036958;28;20064;-77
2022/05/15 14:18:49;;;;;;;0.30;0.30;;;;;;;;;;5041069;28;20033;-75
2022/05/15 14:21:16;;;;;;;0.43;0.43;;;;;;;;;;5034559;28;20551;-75
2022/05/15 14:23:42;;;;;;;1.73;0.60;;;;;;;;;;5042621;28;20048;-76
2022/05/15 14:26:09;;;;;;;0.30;0.30;;;;;;;;;;5041858;28;20029;-76
2022/05/15 14:28:35;;;;;;;1.85;0.40;;;;;;;;;;5038975;28;20114;-75
2022/05/15 14:31:02;;;;;;;0.88;0.40;;;;;;;;;;5041943;28;20561;-74
2022/05/15 14:33:28;;;;;;;0.32;0.32;;;;;;;;;;5035460;28;20488;-73
2022/05/15 14:35:57;;;;;;;2.17;1.00;;;;;;;;;;5039654;28;20086;-76
2022/05/15 14:38:22;;;;;;;0.45;0.30;;;;;;;;;;5036483;28;20017;-75
2022/05/15 14:40:48;;;;;;;1.10;0.55;;;;;;;;;;5045044;28;20032;-74
2022/05/15 14:43:14;;;;;;;0.35;0.35;;;;;;;;;;5039265;28;20020;-75
2022/05/15 14:45:42;;;;;;;0.30;0.30;;;;;;;;;;5036372;28;20044;-74
2022/05/15 14:48:09;;;;;;;0.68;0.50;;;;;;;;;;5041452;28;20036;-74
2022/05/15 14:50:35;;;;;;;0.40;0.40;;;;;;;;;;5043784;28;20075;-74
2022/05/15 14:53:02;;;;;;;0.47;0.43;;;;;;;;;;5036620;28;20043;-73
2022/05/15 14:58:15;;;;;;;0.80;0.50;;;;;;;;;;5038434;28;20068;-74
2022/05/15 15:00:42;;;;;;;0.38;0.35;;;;;;;;;;5041541;28;20090;-75
2022/05/15 15:03:08;;;;;;;0.40;0.40;;;;;;;;;;5037132;28;20029;-73
2022/05/15 15:05:47;;;;;;;1.75;0.40;;;;;;;;;;5037959;28;20057;-74
2022/05/15 15:08:33;;;;;;;0.40;0.32;;;;;;;;;;5038958;28;20357;-73
2022/05/15 15:11:18;;;;;;;0.65;0.30;;;;;;;;;;5041550;28;20083;-75
2022/05/15 15:13:45;;;;;;;0.40;0.40;;;;;;;;;;5040096;28;20353;-73
2022/05/15 15:16:12;;;;;;;0.30;0.30;;;;;;;;;;5044407;28;20021;-74
2022/05/15 15:18:38;;;;;;;1.85;0.65;;;;;;;;;;5034768;28;20630;-74